Skip Navigation Links Skip Navigation Links

Current Weather

Boryspil, Kiev, Ukraine

For information only: do not use for flight planning or navigation.
Latest weather
Observation time Thursday, October 17, 2019 8:30 AM EEST
Local time Thursday, October 17, 2019 8:57 AM EEST
Flight conditions Visual Meteorological Conditions
Winds
Wind direction West-Southwest (240°)
Winds variable from 210° to 270°
Wind speed 7 mph
Visibility 6.2 mi.
Sky condition
Ceiling unlimited
Sky clear
Temperature 50°F
Dewpoint 41°F
Altimeter 30.09 in.Hg
Derived measurements
Relative humidity 71%
Wind chill 47°F
Density altitude -117 ft.
Remarks
Ceiling and visibility OK.
No significant changes expected in the next two hours.
METAR UKKK 170530Z 24003MPS 210V270 CAVOK 10/05 Q1019 R26/70D NOSIG

Settings

Location code

InnerDrive.Weather 4.0.6770.0 Release CLR 4.0.30319.42000
Copyright ©2018 Inner Drive Technology. All rights reserved. Portions Copyright ©1986-2018 David Braverman.

Find weather

Site navigation


Skip Navigation Links

Place info

Page info

PayPal - The safer, easier way to pay online!

Return home.

Copyright ©2019 Inner Drive Technology. Purveyors of fine, hand-crafted computer software. Page printed 2019-10-17T05:57:29 UTC.